sensor_id;sensor_type;location;lat;lon;timestamp;noise_LAeq;noise_LA_min;noise_LA_max;noise_LA01;noise_LA95
38366;Laerm;943;51.568;6.998;2023-08-01T00:01:15;42.90;40.13;56.92;;
38366;Laerm;943;51.568;6.998;2023-08-01T00:03:43;43.05;40.09;53.22;;
38366;Laerm;943;51.568;6.998;2023-08-01T00:06:11;42.36;39.28;54.12;;
38366;Laerm;943;51.568;6.998;2023-08-01T00:08:39;41.97;38.69;51.55;;
38366;Laerm;943;51.568;6.998;2023-08-01T00:11:07;43.34;39.60;53.48;;
38366;Laerm;943;51.568;6.998;2023-08-01T00:13:37;42.73;38.99;53.49;;
38366;Laerm;943;51.568;6.998;2023-08-01T00:16:05;42.19;39.46;58.24;;
38366;Laerm;943;51.568;6.998;2023-08-01T00:18:35;42.01;37.99;52.69;;
38366;Laerm;943;51.568;6.998;2023-08-01T00:21:03;41.96;38.38;49.48;;
38366;Laerm;943;51.568;6.998;2023-08-01T00:23:33;40.33;37.63;49.91;;
38366;Laerm;943;51.568;6.998;2023-08-01T00:26:01;38.98;35.50;53.18;;
38366;Laerm;943;51.568;6.998;2023-08-01T00:28:30;40.10;36.44;49.14;;
38366;Laerm;943;51.568;6.998;2023-08-01T00:31:08;41.56;36.63;52.04;;
38366;Laerm;943;51.568;6.998;2023-08-01T00:33:40;42.61;39.40;52.62;;
38366;Laerm;943;51.568;6.998;2023-08-01T00:36:08;41.92;39.05;51.77;;
38366;Laerm;943;51.568;6.998;2023-08-01T00:38:38;42.01;38.76;50.16;;
38366;Laerm;943;51.568;6.998;2023-08-01T00:41:06;41.50;37.84;51.58;;
38366;Laerm;943;51.568;6.998;2023-08-01T00:43:35;45.13;37.71;54.60;;
38366;Laerm;943;51.568;6.998;2023-08-01T00:46:06;46.86;42.28;59.76;;
38366;Laerm;943;51.568;6.998;2023-08-01T00:48:36;44.14;39.97;59.83;;
38366;Laerm;943;51.568;6.998;2023-08-01T00:51:07;43.03;38.51;58.32;;
38366;Laerm;943;51.568;6.998;2023-08-01T00:53:36;41.19;37.89;48.96;;
38366;Laerm;943;51.568;6.998;2023-08-01T00:56:06;40.95;36.19;53.44;;
38366;Laerm;943;51.568;6.998;2023-08-01T00:58:34;39.52;36.49;50.09;;
38366;Laerm;943;51.568;6.998;2023-08-01T01:01:02;40.13;36.94;49.90;;
38366;Laerm;943;51.568;6.998;2023-08-01T01:03:32;41.08;35.64;54.68;;
38366;Laerm;943;51.568;6.998;2023-08-01T01:09:19;42.70;37.06;51.11;;
38366;Laerm;943;51.568;6.998;2023-08-01T01:11:48;41.40;37.32;51.58;;
38366;Laerm;943;51.568;6.998;2023-08-01T01:14:16;42.00;37.36;53.37;;
38366;Laerm;943;51.568;6.998;2023-08-01T01:16:45;43.96;39.96;63.75;;
38366;Laerm;943;51.568;6.998;2023-08-01T01:19:13;42.92;37.59;65.51;;
38366;Laerm;943;51.568;6.998;2023-08-01T01:21:44;41.97;37.44;50.48;;
38366;Laerm;943;51.568;6.998;2023-08-01T01:24:14;41.13;36.41;49.78;;
38366;Laerm;943;51.568;6.998;2023-08-01T01:26:45;41.97;36.97;55.90;;
38366;Laerm;943;51.568;6.998;2023-08-01T01:29:15;41.55;36.45;47.29;;
38366;Laerm;943;51.568;6.998;2023-08-01T01:31:45;44.15;38.48;58.04;;
38366;Laerm;943;51.568;6.998;2023-08-01T01:34:14;42.48;37.90;51.83;;
38366;Laerm;943;51.568;6.998;2023-08-01T01:36:42;41.38;37.07;47.29;;
38366;Laerm;943;51.568;6.998;2023-08-01T01:39:09;40.68;36.69;50.95;;
38366;Laerm;943;51.568;6.998;2023-08-01T01:41:37;41.14;36.38;50.95;;
38366;Laerm;943;51.568;6.998;2023-08-01T01:44:05;41.77;37.14;57.21;;
38366;Laerm;943;51.568;6.998;2023-08-01T01:46:33;41.30;36.02;53.58;;
38366;Laerm;943;51.568;6.998;2023-08-01T01:49:02;39.82;36.16;45.07;;
38366;Laerm;943;51.568;6.998;2023-08-01T01:51:31;41.05;36.38;52.71;;
38366;Laerm;943;51.568;6.998;2023-08-01T01:53:59;39.78;36.87;48.21;;
38366;Laerm;943;51.568;6.998;2023-08-01T01:56:27;39.85;35.86;53.88;;
38366;Laerm;943;51.568;6.998;2023-08-01T01:58:55;41.46;35.91;67.06;;
38366;Laerm;943;51.568;6.998;2023-08-01T02:01:23;39.95;36.47;46.82;;
38366;Laerm;943;51.568;6.998;2023-08-01T02:03:51;40.12;36.21;45.24;;
38366;Laerm;943;51.568;6.998;2023-08-01T02:06:19;41.14;36.14;48.29;;
38366;Laerm;943;51.568;6.998;2023-08-01T02:08:50;40.50;35.26;47.17;;
38366;Laerm;943;51.568;6.998;2023-08-01T02:11:18;40.00;36.65;46.89;;
38366;Laerm;943;51.568;6.998;2023-08-01T02:13:46;41.07;36.37;50.30;;
38366;Laerm;943;51.568;6.998;2023-08-01T02:16:14;41.31;36.98;47.04;;
38366;Laerm;943;51.568;6.998;2023-08-01T02:18:42;41.00;37.18;45.49;;
38366;Laerm;943;51.568;6.998;2023-08-01T02:21:10;40.61;36.92;53.88;;
38366;Laerm;943;51.568;6.998;2023-08-01T02:23:38;41.33;36.69;49.22;;
38366;Laerm;943;51.568;6.998;2023-08-01T02:26:05;41.73;37.74;47.46;;
38366;Laerm;943;51.568;6.998;2023-08-01T02:28:35;39.65;35.67;47.54;;
38366;Laerm;943;51.568;6.998;2023-08-01T02:31:03;40.79;36.90;51.40;;
38366;Laerm;943;51.568;6.998;2023-08-01T02:33:31;40.13;36.81;46.21;;
38366;Laerm;943;51.568;6.998;2023-08-01T02:36:01;41.18;36.94;53.58;;
38366;Laerm;943;51.568;6.998;2023-08-01T02:38:29;41.58;36.00;48.87;;
38366;Laerm;943;51.568;6.998;2023-08-01T02:40:57;41.66;38.57;47.68;;
38366;Laerm;943;51.568;6.998;2023-08-01T02:43:25;42.48;38.13;59.15;;
38366;Laerm;943;51.568;6.998;2023-08-01T02:45:53;42.05;38.37;57.63;;
38366;Laerm;943;51.568;6.998;2023-08-01T02:48:21;42.82;38.97;53.45;;
38366;Laerm;943;51.568;6.998;2023-08-01T02:50:49;43.20;39.26;53.70;;
38366;Laerm;943;51.568;6.998;2023-08-01T02:53:17;42.35;38.54;48.74;;
38366;Laerm;943;51.568;6.998;2023-08-01T02:55:45;42.86;38.94;49.05;;
38366;Laerm;943;51.568;6.998;2023-08-01T02:58:16;42.20;38.26;48.21;;
38366;Laerm;943;51.568;6.998;2023-08-01T03:00:43;42.62;38.52;47.51;;
38366;Laerm;943;51.568;6.998;2023-08-01T03:03:12;42.59;37.75;47.80;;
38366;Laerm;943;51.568;6.998;2023-08-01T03:05:40;44.24;41.15;53.18;;
38366;Laerm;943;51.568;6.998;2023-08-01T03:08:08;44.54;38.82;54.59;;
38366;Laerm;943;51.568;6.998;2023-08-01T03:10:36;45.06;39.75;49.91;;
38366;Laerm;943;51.568;6.998;2023-08-01T03:13:04;43.80;39.99;50.92;;
38366;Laerm;943;51.568;6.998;2023-08-01T03:15:32;43.39;39.86;55.33;;
38366;Laerm;943;51.568;6.998;2023-08-01T03:18:00;43.80;39.71;51.57;;
38366;Laerm;943;51.568;6.998;2023-08-01T03:20:28;44.00;40.16;47.43;;
38366;Laerm;943;51.568;6.998;2023-08-01T03:22:57;45.36;41.56;58.71;;
38366;Laerm;943;51.568;6.998;2023-08-01T03:25:25;45.09;41.56;55.37;;
38366;Laerm;943;51.568;6.998;2023-08-01T03:27:56;46.89;42.46;63.28;;
38366;Laerm;943;51.568;6.998;2023-08-01T03:30:24;45.88;42.30;56.62;;
38366;Laerm;943;51.568;6.998;2023-08-01T03:32:55;47.78;42.88;64.84;;
38366;Laerm;943;51.568;6.998;2023-08-01T03:35:22;45.19;41.59;50.35;;
38366;Laerm;943;51.568;6.998;2023-08-01T03:37:51;46.82;42.25;63.84;;
38366;Laerm;943;51.568;6.998;2023-08-01T03:40:20;46.90;42.93;58.00;;
38366;Laerm;943;51.568;6.998;2023-08-01T03:42:48;46.07;42.50;53.90;;
38366;Laerm;943;51.568;6.998;2023-08-01T03:45:15;45.15;42.10;49.44;;
38366;Laerm;943;51.568;6.998;2023-08-01T03:47:43;45.80;42.17;53.47;;
38366;Laerm;943;51.568;6.998;2023-08-01T03:50:11;48.90;42.62;66.20;;
38366;Laerm;943;51.568;6.998;2023-08-01T03:52:41;47.04;42.23;62.97;;
38366;Laerm;943;51.568;6.998;2023-08-01T03:55:09;48.50;41.89;65.60;;
38366;Laerm;943;51.568;6.998;2023-08-01T03:57:37;46.44;42.39;59.22;;
38366;Laerm;943;51.568;6.998;2023-08-01T04:00:08;47.22;42.04;63.03;;
38366;Laerm;943;51.568;6.998;2023-08-01T04:02:42;45.92;41.22;55.41;;
38366;Laerm;943;51.568;6.998;2023-08-01T04:05:14;53.20;42.00;74.61;;
38366;Laerm;943;51.568;6.998;2023-08-01T04:07:42;48.91;42.24;64.03;;
38366;Laerm;943;51.568;6.998;2023-08-01T04:10:10;45.96;42.58;53.43;;
38366;Laerm;943;51.568;6.998;2023-08-01T04:12:38;49.36;43.25;64.66;;
38366;Laerm;943;51.568;6.998;2023-08-01T04:15:07;47.50;44.12;58.61;;
38366;Laerm;943;51.568;6.998;2023-08-01T04:17:35;48.69;43.76;66.68;;
38366;Laerm;943;51.568;6.998;2023-08-01T04:20:04;46.31;42.71;58.80;;
38366;Laerm;943;51.568;6.998;2023-08-01T04:22:32;48.03;43.84;60.95;;
38366;Laerm;943;51.568;6.998;2023-08-01T04:25:02;49.39;43.06;66.55;;
38366;Laerm;943;51.568;6.998;2023-08-01T04:27:30;48.77;42.73;63.99;;
38366;Laerm;943;51.568;6.998;2023-08-01T04:29:58;47.85;41.96;63.49;;
38366;Laerm;943;51.568;6.998;2023-08-01T04:32:26;46.67;42.80;56.52;;
38366;Laerm;943;51.568;6.998;2023-08-01T04:34:54;47.43;42.60;59.92;;
38366;Laerm;943;51.568;6.998;2023-08-01T04:37:22;47.36;43.43;60.28;;
38366;Laerm;943;51.568;6.998;2023-08-01T04:39:50;47.55;42.96;60.41;;
38366;Laerm;943;51.568;6.998;2023-08-01T04:42:18;47.45;42.82;61.87;;
38366;Laerm;943;51.568;6.998;2023-08-01T04:44:46;46.18;43.08;57.40;;
38366;Laerm;943;51.568;6.998;2023-08-01T04:47:15;47.23;42.63;58.28;;
38366;Laerm;943;51.568;6.998;2023-08-01T04:49:43;49.56;43.22;67.95;;
38366;Laerm;943;51.568;6.998;2023-08-01T04:52:11;53.20;43.01;72.74;;
38366;Laerm;943;51.568;6.998;2023-08-01T04:54:39;47.93;43.34;61.95;;
38366;Laerm;943;51.568;6.998;2023-08-01T04:57:07;47.13;42.41;59.47;;
38366;Laerm;943;51.568;6.998;2023-08-01T04:59:34;45.66;42.55;55.33;;
38366;Laerm;943;51.568;6.998;2023-08-01T05:02:03;46.00;42.20;59.90;;
38366;Laerm;943;51.568;6.998;2023-08-01T05:04:30;45.81;42.35;52.02;;
38366;Laerm;943;51.568;6.998;2023-08-01T05:06:58;46.12;42.69;51.47;;
38366;Laerm;943;51.568;6.998;2023-08-01T05:09:27;47.69;42.44;61.23;;
38366;Laerm;943;51.568;6.998;2023-08-01T05:11:55;46.90;42.68;59.08;;
38366;Laerm;943;51.568;6.998;2023-08-01T05:14:24;47.15;42.92;57.74;;
38366;Laerm;943;51.568;6.998;2023-08-01T05:16:52;47.28;43.54;59.15;;
38366;Laerm;943;51.568;6.998;2023-08-01T05:19:20;46.93;41.69;62.13;;
38366;Laerm;943;51.568;6.998;2023-08-01T05:21:49;49.45;42.52;64.94;;
38366;Laerm;943;51.568;6.998;2023-08-01T05:24:17;47.91;42.83;61.26;;
38366;Laerm;943;51.568;6.998;2023-08-01T05:26:44;48.59;42.42;64.71;;
38366;Laerm;943;51.568;6.998;2023-08-01T05:29:13;47.70;44.74;61.20;;
38366;Laerm;943;51.568;6.998;2023-08-01T05:31:40;47.55;42.93;58.46;;
38366;Laerm;943;51.568;6.998;2023-08-01T05:34:09;46.45;42.82;60.69;;
38366;Laerm;943;51.568;6.998;2023-08-01T05:36:37;47.44;43.54;57.69;;
38366;Laerm;943;51.568;6.998;2023-08-01T05:39:05;45.86;42.62;54.50;;
38366;Laerm;943;51.568;6.998;2023-08-01T05:41:33;48.48;42.14;62.53;;
38366;Laerm;943;51.568;6.998;2023-08-01T05:44:01;46.32;43.01;53.65;;
38366;Laerm;943;51.568;6.998;2023-08-01T05:46:29;47.16;43.01;56.14;;
38366;Laerm;943;51.568;6.998;2023-08-01T05:48:57;46.30;42.68;54.24;;
38366;Laerm;943;51.568;6.998;2023-08-01T05:51:28;50.13;43.91;68.58;;
38366;Laerm;943;51.568;6.998;2023-08-01T05:53:56;48.53;44.17;60.05;;
38366;Laerm;943;51.568;6.998;2023-08-01T05:56:24;47.45;43.40;54.39;;
38366;Laerm;943;51.568;6.998;2023-08-01T05:58:52;48.23;42.71;59.03;;
38366;Laerm;943;51.568;6.998;2023-08-01T06:01:21;51.01;43.80;66.56;;
38366;Laerm;943;51.568;6.998;2023-08-01T06:03:49;46.98;42.97;55.17;;
38366;Laerm;943;51.568;6.998;2023-08-01T06:06:19;48.16;43.69;66.96;;
38366;Laerm;943;51.568;6.998;2023-08-01T06:08:52;48.18;44.38;59.50;;
38366;Laerm;943;51.568;6.998;2023-08-01T06:11:19;50.73;45.81;64.27;;
38366;Laerm;943;51.568;6.998;2023-08-01T06:13:47;49.65;43.88;64.82;;
38366;Laerm;943;51.568;6.998;2023-08-01T06:16:15;50.05;43.99;68.11;;
38366;Laerm;943;51.568;6.998;2023-08-01T06:18:43;49.09;44.80;58.44;;
38366;Laerm;943;51.568;6.998;2023-08-01T06:21:14;48.61;43.79;59.65;;
38366;Laerm;943;51.568;6.998;2023-08-01T06:23:42;49.60;42.26;66.39;;
38366;Laerm;943;51.568;6.998;2023-08-01T06:26:10;47.04;42.77;59.46;;
38366;Laerm;943;51.568;6.998;2023-08-01T06:28:38;48.68;44.20;59.01;;
38366;Laerm;943;51.568;6.998;2023-08-01T06:31:10;46.47;43.07;53.66;;
38366;Laerm;943;51.568;6.998;2023-08-01T06:33:38;48.29;42.35;63.27;;
38366;Laerm;943;51.568;6.998;2023-08-01T06:36:06;47.02;43.28;57.51;;
38366;Laerm;943;51.568;6.998;2023-08-01T06:38:34;48.43;43.36;61.23;;
38366;Laerm;943;51.568;6.998;2023-08-01T06:41:02;47.32;43.31;65.69;;
38366;Laerm;943;51.568;6.998;2023-08-01T06:43:30;47.36;42.81;55.12;;
38366;Laerm;943;51.568;6.998;2023-08-01T06:45:58;50.16;43.70;66.56;;
38366;Laerm;943;51.568;6.998;2023-08-01T06:48:27;49.78;43.56;63.76;;
38366;Laerm;943;51.568;6.998;2023-08-01T06:50:58;49.40;43.01;65.02;;
38366;Laerm;943;51.568;6.998;2023-08-01T06:53:33;48.83;43.61;63.08;;
38366;Laerm;943;51.568;6.998;2023-08-01T06:56:23;50.01;43.04;72.23;;
38366;Laerm;943;51.568;6.998;2023-08-01T06:59:15;53.84;43.97;70.67;;
38366;Laerm;943;51.568;6.998;2023-08-01T07:01:53;55.82;42.32;77.35;;
38366;Laerm;943;51.568;6.998;2023-08-01T07:04:37;51.53;43.79;74.35;;
38366;Laerm;943;51.568;6.998;2023-08-01T07:07:26;55.16;42.93;76.19;;
38366;Laerm;943;51.568;6.998;2023-08-01T07:10:08;46.94;42.91;62.05;;
38366;Laerm;943;51.568;6.998;2023-08-01T07:12:44;49.90;43.85;68.75;;
38366;Laerm;943;51.568;6.998;2023-08-01T07:15:19;48.01;43.11;59.91;;
38366;Laerm;943;51.568;6.998;2023-08-01T07:17:54;54.30;43.42;73.01;;
38366;Laerm;943;51.568;6.998;2023-08-01T07:20:40;52.05;45.37;66.21;;
38366;Laerm;943;51.568;6.998;2023-08-01T07:23:21;47.57;44.09;55.49;;
38366;Laerm;943;51.568;6.998;2023-08-01T07:26:08;50.69;44.92;66.29;;
38366;Laerm;943;51.568;6.998;2023-08-01T07:28:58;48.48;42.34;61.75;;
38366;Laerm;943;51.568;6.998;2023-08-01T07:31:44;45.73;40.90;58.80;;
38366;Laerm;943;51.568;6.998;2023-08-01T07:34:24;48.17;42.48;62.73;;
38366;Laerm;943;51.568;6.998;2023-08-01T07:37:09;47.36;41.57;60.27;;
38366;Laerm;943;51.568;6.998;2023-08-01T07:39:57;47.97;42.24;59.70;;
38366;Laerm;943;51.568;6.998;2023-08-01T07:42:46;48.11;44.17;57.73;;
38366;Laerm;943;51.568;6.998;2023-08-01T07:45:26;47.14;42.77;61.56;;
38366;Laerm;943;51.568;6.998;2023-08-01T07:48:12;48.63;42.65;66.98;;
38366;Laerm;943;51.568;6.998;2023-08-01T07:51:04;48.95;44.83;63.38;;
38366;Laerm;943;51.568;6.998;2023-08-01T07:53:50;50.49;43.79;65.72;;
38366;Laerm;943;51.568;6.998;2023-08-01T07:56:36;49.85;43.98;66.86;;
38366;Laerm;943;51.568;6.998;2023-08-01T07:59:20;47.15;43.08;60.38;;
38366;Laerm;943;51.568;6.998;2023-08-01T08:01:59;47.91;43.46;60.63;;
38366;Laerm;943;51.568;6.998;2023-08-01T08:04:38;54.12;46.04;72.04;;
38366;Laerm;943;51.568;6.998;2023-08-01T08:07:15;51.74;44.38;64.17;;
38366;Laerm;943;51.568;6.998;2023-08-01T08:09:50;48.06;44.12;66.93;;
38366;Laerm;943;51.568;6.998;2023-08-01T08:12:35;49.91;41.82;71.40;;
38366;Laerm;943;51.568;6.998;2023-08-01T08:15:33;49.33;44.12;63.94;;
38366;Laerm;943;51.568;6.998;2023-08-01T08:18:15;50.55;43.40;78.63;;
38366;Laerm;943;51.568;6.998;2023-08-01T08:21:00;46.98;42.44;61.56;;
38366;Laerm;943;51.568;6.998;2023-08-01T08:23:36;49.95;41.39;64.45;;
38366;Laerm;943;51.568;6.998;2023-08-01T08:26:09;47.04;43.58;54.04;;
38366;Laerm;943;51.568;6.998;2023-08-01T08:28:43;50.38;44.15;66.95;;
38366;Laerm;943;51.568;6.998;2023-08-01T08:31:19;53.55;45.56;71.01;;
38366;Laerm;943;51.568;6.998;2023-08-01T08:33:56;50.07;43.40;64.20;;
38366;Laerm;943;51.568;6.998;2023-08-01T08:36:28;48.35;42.80;63.31;;
38366;Laerm;943;51.568;6.998;2023-08-01T08:39:00;49.52;42.33;63.49;;
38366;Laerm;943;51.568;6.998;2023-08-01T08:41:46;45.53;41.37;55.73;;
38366;Laerm;943;51.568;6.998;2023-08-01T08:44:20;47.94;41.88;68.89;;
38366;Laerm;943;51.568;6.998;2023-08-01T08:46:54;48.89;41.26;61.26;;
38366;Laerm;943;51.568;6.998;2023-08-01T08:49:27;49.44;43.12;67.28;;
38366;Laerm;943;51.568;6.998;2023-08-01T08:51:58;46.52;41.13;60.59;;
38366;Laerm;943;51.568;6.998;2023-08-01T08:54:37;52.02;43.94;71.27;;
38366;Laerm;943;51.568;6.998;2023-08-01T08:57:13;46.85;43.75;60.91;;
38366;Laerm;943;51.568;6.998;2023-08-01T08:59:47;49.80;43.35;64.03;;
38366;Laerm;943;51.568;6.998;2023-08-01T09:02:18;50.58;42.29;66.73;;
38366;Laerm;943;51.568;6.998;2023-08-01T09:04:58;47.26;42.14;62.23;;
38366;Laerm;943;51.568;6.998;2023-08-01T09:07:43;49.50;43.76;63.07;;
38366;Laerm;943;51.568;6.998;2023-08-01T09:10:15;49.29;43.74;59.66;;
38366;Laerm;943;51.568;6.998;2023-08-01T09:12:44;47.10;43.18;57.16;;
38366;Laerm;943;51.568;6.998;2023-08-01T09:15:15;45.84;41.26;69.57;;
38366;Laerm;943;51.568;6.998;2023-08-01T09:17:54;51.38;42.40;71.65;;
38366;Laerm;943;51.568;6.998;2023-08-01T09:20:28;53.10;44.19;72.42;;
38366;Laerm;943;51.568;6.998;2023-08-01T09:23:09;49.36;43.74;64.90;;
38366;Laerm;943;51.568;6.998;2023-08-01T09:25:40;50.20;43.37;67.61;;
38366;Laerm;943;51.568;6.998;2023-08-01T09:28:22;49.16;41.98;62.93;;
38366;Laerm;943;51.568;6.998;2023-08-01T09:30:56;49.44;42.13;68.58;;
38366;Laerm;943;51.568;6.998;2023-08-01T09:33:26;46.29;41.05;55.71;;
38366;Laerm;943;51.568;6.998;2023-08-01T09:35:54;46.54;42.34;60.00;;
38366;Laerm;943;51.568;6.998;2023-08-01T09:38:23;50.55;43.97;66.67;;
38366;Laerm;943;51.568;6.998;2023-08-01T09:40:53;54.76;46.67;73.19;;
38366;Laerm;943;51.568;6.998;2023-08-01T09:43:22;53.63;45.90;72.06;;
38366;Laerm;943;51.568;6.998;2023-08-01T09:45:53;50.99;42.38;68.36;;
38366;Laerm;943;51.568;6.998;2023-08-01T09:48:29;47.28;42.57;56.42;;
38366;Laerm;943;51.568;6.998;2023-08-01T09:51:14;45.94;41.68;59.57;;
38366;Laerm;943;51.568;6.998;2023-08-01T09:53:57;50.85;44.67;68.93;;
38366;Laerm;943;51.568;6.998;2023-08-01T09:56:28;52.10;44.55;68.34;;
38366;Laerm;943;51.568;6.998;2023-08-01T09:58:59;47.23;42.50;58.39;;
38366;Laerm;943;51.568;6.998;2023-08-01T10:01:31;50.60;44.35;67.04;;
38366;Laerm;943;51.568;6.998;2023-08-01T10:04:02;53.69;47.10;63.81;;
38366;Laerm;943;51.568;6.998;2023-08-01T10:06:38;51.02;47.36;66.41;;
38366;Laerm;943;51.568;6.998;2023-08-01T10:09:12;49.18;45.49;60.84;;
38366;Laerm;943;51.568;6.998;2023-08-01T10:11:42;48.31;43.90;59.89;;
38366;Laerm;943;51.568;6.998;2023-08-01T10:14:12;47.84;44.42;55.60;;
38366;Laerm;943;51.568;6.998;2023-08-01T10:16:44;46.35;43.71;50.62;;
38366;Laerm;943;51.568;6.998;2023-08-01T10:19:19;47.97;44.43;62.08;;
38366;Laerm;943;51.568;6.998;2023-08-01T10:21:52;50.30;45.41;60.72;;
38366;Laerm;943;51.568;6.998;2023-08-01T10:24:25;55.03;47.10;74.52;;
38366;Laerm;943;51.568;6.998;2023-08-01T10:26:55;49.10;44.87;57.94;;
38366;Laerm;943;51.568;6.998;2023-08-01T10:29:36;52.43;44.63;72.50;;
38366;Laerm;943;51.568;6.998;2023-08-01T10:32:08;49.39;44.40;65.51;;
38366;Laerm;943;51.568;6.998;2023-08-01T10:34:38;50.24;44.91;60.97;;
38366;Laerm;943;51.568;6.998;2023-08-01T10:37:08;59.91;46.96;80.08;;
38366;Laerm;943;51.568;6.998;2023-08-01T10:39:37;50.74;46.79;66.63;;
38366;Laerm;943;51.568;6.998;2023-08-01T10:42:06;58.92;47.01;77.91;;
38366;Laerm;943;51.568;6.998;2023-08-01T10:44:48;64.30;55.16;81.95;;
38366;Laerm;943;51.568;6.998;2023-08-01T10:47:28;57.65;51.19;77.89;;
38366;Laerm;943;51.568;6.998;2023-08-01T10:49:57;54.46;47.91;66.68;;
38366;Laerm;943;51.568;6.998;2023-08-01T10:52:27;50.76;47.75;67.06;;
38366;Laerm;943;51.568;6.998;2023-08-01T10:55:02;49.60;45.32;55.60;;
38366;Laerm;943;51.568;6.998;2023-08-01T10:57:39;49.75;45.50;62.67;;
38366;Laerm;943;51.568;6.998;2023-08-01T11:00:08;48.68;45.09;56.38;;
38366;Laerm;943;51.568;6.998;2023-08-01T11:02:37;49.26;45.29;59.51;;
38366;Laerm;943;51.568;6.998;2023-08-01T11:05:08;49.49;45.50;62.08;;
38366;Laerm;943;51.568;6.998;2023-08-01T11:07:36;53.31;45.27;75.54;;
38366;Laerm;943;51.568;6.998;2023-08-01T11:10:13;50.56;44.55;62.42;;
38366;Laerm;943;51.568;6.998;2023-08-01T11:12:44;50.00;45.78;61.93;;
38366;Laerm;943;51.568;6.998;2023-08-01T11:15:16;49.60;44.74;62.10;;
38366;Laerm;943;51.568;6.998;2023-08-01T11:17:53;56.23;46.12;69.94;;
38366;Laerm;943;51.568;6.998;2023-08-01T11:20:25;61.87;46.48;77.96;;
38366;Laerm;943;51.568;6.998;2023-08-01T11:23:01;53.31;45.36;70.70;;
38366;Laerm;943;51.568;6.998;2023-08-01T11:25:46;48.49;44.05;58.21;;
38366;Laerm;943;51.568;6.998;2023-08-01T11:28:44;49.52;43.92;67.69;;
38366;Laerm;943;51.568;6.998;2023-08-01T11:31:21;57.99;45.81;77.16;;
38366;Laerm;943;51.568;6.998;2023-08-01T11:33:58;57.71;45.95;76.05;;
38366;Laerm;943;51.568;6.998;2023-08-01T11:36:29;50.35;44.67;68.06;;
38366;Laerm;943;51.568;6.998;2023-08-01T11:39:00;48.82;44.56;62.50;;
38366;Laerm;943;51.568;6.998;2023-08-01T11:41:29;48.95;44.48;64.84;;
38366;Laerm;943;51.568;6.998;2023-08-01T11:44:03;50.37;44.63;63.05;;
38366;Laerm;943;51.568;6.998;2023-08-01T11:46:35;50.63;45.10;70.92;;
38366;Laerm;943;51.568;6.998;2023-08-01T11:49:06;51.66;45.61;66.68;;
38366;Laerm;943;51.568;6.998;2023-08-01T11:51:44;51.83;45.91;70.32;;
38366;Laerm;943;51.568;6.998;2023-08-01T11:54:14;53.66;45.94;70.85;;
38366;Laerm;943;51.568;6.998;2023-08-01T11:56:43;58.12;46.01;75.08;;
38366;Laerm;943;51.568;6.998;2023-08-01T11:59:16;55.19;45.35;69.75;;
38366;Laerm;943;51.568;6.998;2023-08-01T12:01:47;51.19;44.62;71.18;;
38366;Laerm;943;51.568;6.998;2023-08-01T12:04:28;53.03;44.07;73.88;;
38366;Laerm;943;51.568;6.998;2023-08-01T12:06:57;53.38;43.75;71.71;;
38366;Laerm;943;51.568;6.998;2023-08-01T12:09:25;55.02;46.24;72.03;;
38366;Laerm;943;51.568;6.998;2023-08-01T12:12:01;55.08;43.23;73.21;;
38366;Laerm;943;51.568;6.998;2023-08-01T12:14:29;46.85;42.81;53.91;;
38366;Laerm;943;51.568;6.998;2023-08-01T12:16:57;48.87;43.65;64.84;;
38366;Laerm;943;51.568;6.998;2023-08-01T12:19:25;53.03;45.36;70.97;;
38366;Laerm;943;51.568;6.998;2023-08-01T12:21:53;53.23;44.70;69.14;;
38366;Laerm;943;51.568;6.998;2023-08-01T12:24:21;47.40;42.68;63.27;;
38366;Laerm;943;51.568;6.998;2023-08-01T12:26:49;50.53;43.34;65.98;;
38366;Laerm;943;51.568;6.998;2023-08-01T12:29:17;52.77;44.37;70.20;;
38366;Laerm;943;51.568;6.998;2023-08-01T12:31:45;50.55;44.58;64.72;;
38366;Laerm;943;51.568;6.998;2023-08-01T12:34:14;50.03;44.75;67.24;;
38366;Laerm;943;51.568;6.998;2023-08-01T12:36:42;49.51;44.11;62.95;;
38366;Laerm;943;51.568;6.998;2023-08-01T12:39:11;55.75;45.66;72.00;;
38366;Laerm;943;51.568;6.998;2023-08-01T12:41:39;57.93;46.32;75.43;;
38366;Laerm;943;51.568;6.998;2023-08-01T12:44:07;56.81;46.04;75.66;;
38366;Laerm;943;51.568;6.998;2023-08-01T12:46:35;52.59;44.10;69.59;;
38366;Laerm;943;51.568;6.998;2023-08-01T12:49:03;51.81;44.67;68.85;;
38366;Laerm;943;51.568;6.998;2023-08-01T12:51:31;57.75;46.20;81.20;;
38366;Laerm;943;51.568;6.998;2023-08-01T12:53:59;52.67;44.78;68.89;;
38366;Laerm;943;51.568;6.998;2023-08-01T12:56:27;54.94;45.76;69.19;;
38366;Laerm;943;51.568;6.998;2023-08-01T12:58:55;54.48;44.73;73.23;;
38366;Laerm;943;51.568;6.998;2023-08-01T13:01:23;48.39;42.81;61.79;;
38366;Laerm;943;51.568;6.998;2023-08-01T13:03:51;51.13;42.68;65.72;;
38366;Laerm;943;51.568;6.998;2023-08-01T13:06:19;45.91;42.19;50.71;;
38366;Laerm;943;51.568;6.998;2023-08-01T13:08:47;48.84;43.35;66.16;;
38366;Laerm;943;51.568;6.998;2023-08-01T13:11:15;51.57;42.39;73.34;;
38366;Laerm;943;51.568;6.998;2023-08-01T13:13:43;48.96;42.92;63.77;;
38366;Laerm;943;51.568;6.998;2023-08-01T13:16:12;47.98;42.83;61.53;;
38366;Laerm;943;51.568;6.998;2023-08-01T13:18:41;47.08;43.44;55.74;;
38366;Laerm;943;51.568;6.998;2023-08-01T13:21:14;47.20;43.32;54.41;;
38366;Laerm;943;51.568;6.998;2023-08-01T13:23:42;50.71;44.37;68.38;;
38366;Laerm;943;51.568;6.998;2023-08-01T13:26:10;47.34;44.23;58.49;;
38366;Laerm;943;51.568;6.998;2023-08-01T13:28:38;48.20;44.05;65.09;;
38366;Laerm;943;51.568;6.998;2023-08-01T13:31:06;50.77;44.68;69.52;;
38366;Laerm;943;51.568;6.998;2023-08-01T13:33:34;49.84;44.21;64.27;;
38366;Laerm;943;51.568;6.998;2023-08-01T13:36:02;50.85;45.42;63.38;;
38366;Laerm;943;51.568;6.998;2023-08-01T13:38:30;51.71;44.89;61.99;;
38366;Laerm;943;51.568;6.998;2023-08-01T13:41:00;57.63;45.33;80.55;;
38366;Laerm;943;51.568;6.998;2023-08-01T13:43:29;56.76;43.64;84.58;;
38366;Laerm;943;51.568;6.998;2023-08-01T13:45:57;54.59;46.04;70.37;;
38366;Laerm;943;51.568;6.998;2023-08-01T13:48:25;62.20;49.24;83.12;;
38366;Laerm;943;51.568;6.998;2023-08-01T13:50:58;56.45;46.74;79.57;;
38366;Laerm;943;51.568;6.998;2023-08-01T13:53:26;51.71;43.36;68.60;;
38366;Laerm;943;51.568;6.998;2023-08-01T13:55:55;54.45;44.01;69.30;;
38366;Laerm;943;51.568;6.998;2023-08-01T13:58:23;59.23;46.96;78.53;;
38366;Laerm;943;51.568;6.998;2023-08-01T14:00:51;55.39;45.67;77.54;;
38366;Laerm;943;51.568;6.998;2023-08-01T14:03:19;53.28;44.78;70.77;;
38366;Laerm;943;51.568;6.998;2023-08-01T14:05:47;54.88;47.36;71.05;;
38366;Laerm;943;51.568;6.998;2023-08-01T14:08:15;50.49;45.05;66.22;;
38366;Laerm;943;51.568;6.998;2023-08-01T14:10:43;53.67;46.14;70.03;;
38366;Laerm;943;51.568;6.998;2023-08-01T14:13:11;59.67;45.15;78.23;;
38366;Laerm;943;51.568;6.998;2023-08-01T14:15:48;53.94;44.98;75.75;;
38366;Laerm;943;51.568;6.998;2023-08-01T14:18:39;51.40;44.03;74.68;;
38366;Laerm;943;51.568;6.998;2023-08-01T14:21:27;58.14;46.47;79.97;;
38366;Laerm;943;51.568;6.998;2023-08-01T14:24:16;53.33;44.17;69.11;;
38366;Laerm;943;51.568;6.998;2023-08-01T14:27:03;50.58;45.03;64.73;;
38366;Laerm;943;51.568;6.998;2023-08-01T14:29:52;49.84;44.45;62.34;;
38366;Laerm;943;51.568;6.998;2023-08-01T14:32:42;50.22;45.08;66.01;;
38366;Laerm;943;51.568;6.998;2023-08-01T14:35:21;51.48;44.59;72.53;;
38366;Laerm;943;51.568;6.998;2023-08-01T14:37:49;58.15;45.80;74.67;;